This is the latest recevied weather packets stored in our database for station/object HA5CD-6. If no packets are shown the sender has not sent any weather packets the latest 1 day(s).
| Time | Temp. | Humidity | Pressure | Rain* | Wind** | Luminosity | Snow |
|---|---|---|---|---|---|---|---|
| 1778049786 | 25° C | 40% | 988 hPa | - | - | - | - |
| 1778049169 | 23.33° C | 42% | 988 hPa | - | - | - | - |
| 1778048646 | 25° C | 40% | 988 hPa | - | - | - | - |
| 1778046174 | 22.22° C | 45% | 988 hPa | - | - | - | - |
| 1778045570 | 21.67° C | 47% | 988 hPa | - | - | - | - |
| 1778044558 | 21.11° C | 50% | 988 hPa | - | - | - | - |
| 1778043774 | 20° C | 52% | 988 hPa | - | - | - | - |
| 1778042569 | 20° C | 53% | 988 hPa | - | - | - | - |
| 1778041997 | 18.89° C | 56% | 988 hPa | - | - | - | - |
| 1778040770 | 17.22° C | 62% | 988 hPa | - | - | - | - |
| 1778038971 | 13.33° C | 76% | 988 hPa | - | - | - | - |
| 1778037769 | 13.33° C | 76% | 988 hPa | - | - | - | - |
| 1778036566 | 13.89° C | 73% | 988 hPa | - | - | - | - |
| 1778035966 | 13.89° C | 73% | 988 hPa | - | - | - | - |
| 1778035366 | 14.44° C | 72% | 988 hPa | - | - | - | - |
| 1778034180 | 14.44° C | 71% | 988 hPa | - | - | - | - |
| 1778033566 | 14.44° C | 70% | 988 hPa | - | - | - | - |
| 1778032966 | 15° C | 68% | 988 hPa | - | - | - | - |
| 1778031767 | 15° C | 67% | 988 hPa | - | - | - | - |
| 1778031170 | 15.56° C | 66% | 988 hPa | - | - | - | - |
| 1778029367 | 15.56° C | 65% | 988 hPa | - | - | - | - |
| 1778028165 | 15.56° C | 65% | 988 hPa | - | - | - | - |
| 1778026972 | 15.56° C | 64% | 988 hPa | - | - | - | - |
| 1778024573 | 16.11° C | 62% | 988 hPa | - | - | - | - |
| 1778021564 | 16.67° C | 57% | 988 hPa | - | - | - | - |
* Rain since midnight (hover to see other rain measurements)
** Current wind speed in m/s (hover to see current wind gust speed)